La Paloma, Texas
Current Conditions -  °F | °C
As of 10:52 PM on Saturday 25 Oct 2014 (Local Time) from KHRL Reporting Station
Clear Clear  
Wind Chill: 67°   Ceiling: Unl
Heat Index: 67°   Visibility: 10mi
Dew Point: 64°   Wind: 7mph
Humidity: 90%   Direction: 120°ESE
Pressure: 30.1"   Gusts: NA
Location:  26.1784°N, 97.6678°W
Report Text: KHRL 260352Z AUTO 12006KT 10SM CLR 19/18 A3010 RMK AO2 SLP192 T01940178 TSNO
Loading
Personal Weather Stations






























Interactive Weather Map
Tropical Storm Tracking
New forecast layout! Learn more

10-Day Weather Forecast

Advertisements
Track Severe Weather on mobile